createdAt,value
2017-10-13T00:01:46.488Z,25.80
2017-10-13T00:04:13.027Z,24.60
2017-10-13T00:06:39.415Z,18.80
2017-10-13T00:09:05.896Z,22.43
2017-10-13T00:11:32.330Z,23.70
2017-10-13T00:13:59.584Z,23.87
2017-10-13T00:16:25.948Z,31.50
2017-10-13T00:18:52.436Z,31.00
2017-10-13T00:21:18.876Z,24.67
2017-10-13T00:23:45.425Z,27.63
2017-10-13T00:26:11.862Z,22.03
2017-10-13T00:28:38.307Z,28.27
2017-10-13T00:31:05.445Z,23.70
2017-10-13T00:33:31.881Z,23.27
2017-10-13T00:35:58.315Z,27.60
2017-10-13T00:38:24.751Z,26.30
2017-10-13T00:40:51.186Z,22.37
2017-10-13T00:43:17.620Z,23.53
2017-10-13T00:45:44.099Z,24.80
2017-10-13T00:48:11.309Z,25.17
2017-10-13T00:50:37.744Z,28.10
2017-10-13T00:53:04.140Z,23.03
2017-10-13T00:55:30.614Z,26.27
2017-10-13T00:57:57.001Z,21.30
2017-10-13T01:00:23.380Z,19.17
2017-10-13T01:02:49.816Z,25.23
2017-10-13T01:05:17.063Z,24.30
2017-10-13T01:07:43.504Z,19.60
2017-10-13T01:10:09.996Z,17.27
2017-10-13T01:12:36.464Z,17.60
2017-10-13T01:15:03.014Z,20.80
2017-10-13T01:17:29.447Z,17.07
2017-10-13T01:19:55.882Z,31.23
2017-10-13T01:22:23.138Z,20.43
2017-10-13T01:24:49.588Z,17.90
2017-10-13T01:27:16.007Z,19.83
2017-10-13T01:29:42.441Z,15.93
2017-10-13T01:32:08.878Z,18.03
2017-10-13T01:34:35.311Z,17.90
2017-10-13T01:37:01.745Z,21.03
2017-10-13T01:39:28.999Z,14.43
2017-10-13T01:41:55.436Z,15.13
2017-10-13T01:44:21.869Z,23.90
2017-10-13T01:46:48.314Z,18.27
2017-10-13T01:49:14.757Z,17.60
2017-10-13T01:51:41.173Z,23.83
2017-10-13T01:54:07.608Z,15.13
2017-10-13T01:56:34.862Z,19.93
2017-10-13T01:59:01.399Z,16.63
2017-10-13T02:01:27.835Z,14.50
2017-10-13T02:03:54.269Z,17.00
2017-10-13T02:06:20.703Z,19.00
2017-10-13T02:08:47.139Z,18.17
2017-10-13T02:11:13.594Z,18.80
2017-10-13T02:13:40.729Z,17.40
2017-10-13T02:16:07.172Z,20.73
2017-10-13T02:18:33.595Z,19.13
2017-10-13T02:20:59.980Z,18.50
2017-10-13T02:23:26.441Z,17.90
2017-10-13T02:25:52.904Z,12.97
2017-10-13T02:28:19.333Z,14.77
2017-10-13T02:30:46.536Z,18.60
2017-10-13T02:33:12.976Z,17.07
2017-10-13T02:35:39.457Z,19.50
2017-10-13T02:38:05.892Z,17.17
2017-10-13T02:40:32.326Z,17.57
2017-10-13T02:42:58.761Z,13.83
2017-10-13T02:45:25.196Z,24.00
2017-10-13T02:47:52.347Z,18.93
2017-10-13T02:50:18.732Z,17.90
2017-10-13T02:52:45.179Z,19.67
2017-10-13T02:55:11.652Z,22.70
2017-10-13T02:57:38.189Z,16.70
2017-10-13T03:00:04.624Z,22.07
2017-10-13T03:02:31.058Z,16.37
2017-10-13T03:04:58.210Z,23.80
2017-10-13T03:07:24.645Z,25.33
2017-10-13T03:09:51.080Z,20.17
2017-10-13T03:12:17.515Z,23.87
2017-10-13T03:14:43.952Z,21.23
2017-10-13T03:17:10.387Z,16.50
2017-10-13T03:19:36.819Z,26.33
2017-10-13T03:22:03.977Z,18.77
2017-10-13T03:24:30.410Z,20.40
2017-10-13T03:26:56.840Z,30.07
2017-10-13T03:29:23.221Z,37.13
2017-10-13T03:31:49.711Z,47.93
2017-10-13T03:34:16.149Z,31.90
2017-10-13T03:36:42.580Z,26.13
2017-10-13T03:39:09.732Z,63.03
2017-10-13T03:41:36.166Z,37.10
2017-10-13T03:44:02.608Z,77.90
2017-10-13T03:46:29.137Z,69.43
2017-10-13T03:48:55.572Z,61.30
2017-10-13T03:51:21.972Z,60.20
2017-10-13T03:53:48.391Z,50.83
2017-10-13T03:56:15.593Z,43.17
2017-10-13T03:58:41.966Z,49.70
2017-10-13T04:01:08.463Z,47.83
2017-10-13T04:03:34.898Z,44.50
2017-10-13T04:06:01.334Z,48.00
2017-10-13T04:08:27.768Z,51.10
2017-10-13T04:10:54.206Z,43.50
2017-10-13T04:13:21.344Z,39.43
2017-10-13T04:15:47.786Z,54.20
2017-10-13T04:18:14.224Z,50.70
2017-10-13T04:20:40.659Z,42.67
2017-10-13T04:23:07.092Z,44.97
2017-10-13T04:25:33.480Z,47.13
2017-10-13T04:27:59.860Z,56.73
2017-10-13T04:30:27.114Z,44.70
2017-10-13T04:32:53.548Z,57.73
2017-10-13T04:35:19.985Z,43.90
2017-10-13T04:37:46.418Z,53.93
2017-10-13T04:40:12.973Z,46.33
2017-10-13T04:42:39.391Z,54.97
2017-10-13T04:45:05.826Z,39.73
2017-10-13T04:47:32.978Z,33.43
2017-10-13T04:49:59.412Z,36.33
2017-10-13T04:52:25.846Z,40.53
2017-10-13T04:54:52.282Z,39.20
2017-10-13T04:57:18.716Z,26.97
2017-10-13T04:59:45.151Z,40.80
2017-10-13T05:02:11.588Z,46.37
2017-10-13T05:04:38.840Z,69.37
2017-10-13T05:07:05.275Z,40.40
2017-10-13T05:09:31.708Z,43.47
2017-10-13T05:11:58.144Z,34.43
2017-10-13T05:14:24.578Z,33.30
2017-10-13T05:16:51.013Z,51.13
2017-10-13T05:19:17.448Z,37.50
2017-10-13T05:21:44.703Z,39.63
2017-10-13T05:24:11.241Z,40.50
2017-10-13T05:26:37.674Z,31.57
2017-10-13T05:29:04.109Z,43.33
2017-10-13T05:31:30.544Z,35.27
2017-10-13T05:33:56.978Z,31.63
2017-10-13T05:36:23.414Z,55.30
2017-10-13T05:38:49.849Z,30.30
2017-10-13T05:41:16.282Z,31.47
2017-10-13T05:43:42.717Z,42.80
2017-10-13T05:46:09.358Z,47.60
2017-10-13T05:48:35.897Z,54.50
2017-10-13T05:51:03.252Z,39.63
2017-10-13T05:53:29.686Z,51.63
2017-10-13T05:55:56.120Z,38.53
2017-10-13T05:58:22.555Z,46.77
2017-10-13T06:00:48.992Z,49.23
2017-10-13T06:03:15.379Z,54.50
2017-10-13T06:05:41.812Z,48.50
2017-10-13T06:08:08.294Z,46.73
2017-10-13T06:10:34.729Z,53.50
2017-10-13T06:13:01.266Z,64.17
2017-10-13T06:15:27.701Z,78.37
2017-10-13T06:17:54.341Z,82.53
2017-10-13T06:20:20.776Z,74.23
2017-10-13T06:22:47.210Z,55.67
2017-10-13T06:25:13.645Z,85.10
2017-10-13T06:27:40.087Z,75.63
2017-10-13T06:30:06.925Z,75.57
2017-10-13T06:32:33.371Z,88.67
2017-10-13T06:34:59.793Z,84.60
2017-10-13T06:37:26.228Z,76.63
2017-10-13T06:39:52.769Z,82.27
2017-10-13T06:42:19.323Z,66.30
2017-10-13T06:44:45.737Z,77.70
2017-10-13T06:47:12.172Z,56.93
2017-10-13T06:49:38.612Z,71.40
2017-10-13T06:52:05.024Z,73.37
2017-10-13T06:54:31.477Z,60.43
2017-10-13T06:56:57.912Z,57.97
2017-10-13T06:59:24.346Z,34.83
2017-10-13T07:01:50.782Z,28.33
2017-10-13T07:04:17.235Z,15.87
2017-10-13T07:06:43.753Z,23.83
2017-10-13T07:09:10.206Z,16.40
2017-10-13T07:11:36.681Z,22.30
2017-10-13T07:14:03.057Z,29.03
2017-10-13T07:16:29.597Z,25.17
2017-10-13T07:18:55.988Z,20.67
2017-10-13T07:21:22.464Z,20.57
2017-10-13T07:23:49.636Z,23.40
2017-10-13T07:26:15.993Z,16.60
2017-10-13T07:28:42.486Z,21.13
2017-10-13T07:31:08.940Z,17.93
2017-10-13T07:33:35.354Z,18.60
2017-10-13T07:36:01.791Z,23.93
2017-10-13T07:38:28.159Z,14.73
2017-10-13T07:40:54.658Z,16.10
2017-10-13T07:43:21.047Z,18.27
2017-10-13T07:45:47.521Z,16.17
2017-10-13T07:48:13.990Z,12.93
2017-10-13T07:50:40.491Z,12.70
2017-10-13T07:53:06.935Z,15.70
2017-10-13T07:55:33.372Z,21.03
2017-10-13T07:57:59.805Z,13.43
2017-10-13T08:00:26.242Z,16.10
2017-10-13T08:02:52.675Z,21.20
2017-10-13T08:05:19.109Z,12.30
2017-10-13T08:07:45.545Z,17.67
2017-10-13T08:10:11.982Z,17.20
2017-10-13T08:12:38.413Z,16.10
2017-10-13T08:15:04.854Z,22.63
2017-10-13T08:17:31.239Z,12.90
2017-10-13T08:19:57.752Z,24.07
2017-10-13T08:22:24.259Z,16.40
2017-10-13T08:24:50.792Z,17.70
2017-10-13T08:27:17.193Z,11.30
2017-10-13T08:29:43.661Z,13.70
2017-10-13T08:32:10.153Z,14.00
2017-10-13T08:34:36.588Z,15.70
2017-10-13T08:37:03.050Z,12.97
2017-10-13T08:39:29.499Z,15.50
2017-10-13T08:41:56.096Z,14.90
2017-10-13T08:44:22.475Z,11.53
2017-10-13T08:46:48.909Z,36.83
2017-10-13T08:49:15.449Z,17.00
2017-10-13T08:51:41.986Z,18.57
2017-10-13T08:54:08.419Z,11.70
2017-10-13T08:56:34.817Z,12.27
2017-10-13T08:59:01.291Z,11.23
2017-10-13T09:01:27.680Z,17.47
2017-10-13T09:03:54.178Z,11.70
2017-10-13T09:06:20.592Z,11.40
2017-10-13T09:08:47.028Z,15.20
2017-10-13T09:11:13.463Z,10.67
2017-10-13T09:13:39.832Z,10.53
2017-10-13T09:16:06.285Z,9.70
2017-10-13T09:18:32.766Z,15.60
2017-10-13T09:20:59.218Z,17.10
2017-10-13T09:23:25.588Z,12.20
2017-10-13T09:25:52.026Z,10.17
2017-10-13T09:28:18.505Z,11.27
2017-10-13T09:30:44.892Z,11.63
2017-10-13T09:33:11.376Z,11.27
2017-10-13T09:35:37.809Z,9.60
2017-10-13T09:38:04.551Z,14.50
2017-10-13T09:40:30.987Z,9.40
2017-10-13T09:42:57.421Z,14.83
2017-10-13T09:45:23.858Z,9.70
2017-10-13T09:47:50.312Z,9.43
2017-10-13T09:50:16.727Z,9.43
2017-10-13T09:52:43.161Z,10.10
2017-10-13T09:55:09.596Z,14.00
2017-10-13T09:57:35.988Z,10.40
2017-10-13T10:00:02.454Z,9.60
2017-10-13T10:02:29.208Z,12.37
2017-10-13T10:04:55.743Z,11.80
2017-10-13T10:07:22.182Z,15.07
2017-10-13T10:09:48.614Z,10.07
2017-10-13T10:12:15.355Z,7.87
2017-10-13T10:14:41.791Z,10.80
2017-10-13T10:17:08.225Z,8.90
2017-10-13T10:19:34.607Z,10.77
2017-10-13T10:22:01.095Z,12.17
2017-10-13T10:24:27.530Z,14.40
2017-10-13T10:26:54.029Z,8.97
2017-10-13T10:29:20.503Z,9.83
2017-10-13T10:31:46.936Z,8.47
2017-10-13T10:34:14.190Z,8.40
2017-10-13T10:39:13.101Z,10.97
2017-10-13T10:41:39.540Z,9.87
2017-10-13T10:44:06.035Z,17.90
2017-10-13T10:46:32.714Z,8.20
2017-10-13T10:48:59.150Z,7.40
2017-10-13T10:51:25.583Z,13.67
2017-10-13T10:53:51.971Z,13.53
2017-10-13T10:56:18.452Z,10.23
2017-10-13T10:58:44.887Z,12.33
2017-10-13T11:01:11.425Z,7.10
2017-10-13T11:03:37.809Z,8.57
2017-10-13T11:06:04.295Z,9.77
2017-10-13T11:08:30.729Z,5.80
2017-10-13T11:10:57.163Z,10.03
2017-10-13T11:15:55.051Z,10.50
2017-10-13T11:18:21.486Z,8.20
2017-10-13T11:20:47.921Z,6.80
2017-10-13T11:23:14.356Z,13.37
2017-10-13T11:25:40.790Z,7.80
2017-10-13T11:28:07.225Z,10.10
2017-10-13T11:30:33.659Z,9.17
2017-10-13T11:33:00.043Z,11.37
2017-10-13T11:35:26.529Z,12.03
2017-10-13T11:37:52.988Z,6.30
2017-10-13T11:40:19.378Z,6.20
2017-10-13T11:42:45.822Z,7.20
2017-10-13T11:45:12.266Z,10.33
2017-10-13T11:47:38.708Z,7.93
2017-10-13T11:50:05.651Z,8.43
2017-10-13T11:52:32.037Z,6.83
2017-10-13T11:54:58.512Z,9.43
2017-10-13T11:57:24.955Z,5.80
2017-10-13T11:59:51.390Z,13.73
2017-10-13T12:02:17.826Z,7.77
2017-10-13T12:04:44.259Z,5.53
2017-10-13T12:07:10.694Z,5.80
2017-10-13T12:09:37.128Z,6.30
2017-10-13T12:12:03.563Z,8.57
2017-10-13T12:14:30.679Z,8.57
2017-10-13T12:16:57.267Z,6.33
2017-10-13T12:19:23.789Z,10.23
2017-10-13T12:21:50.384Z,6.17
2017-10-13T12:24:16.762Z,6.07
2017-10-13T12:26:43.401Z,9.23
2017-10-13T12:29:09.787Z,10.10
2017-10-13T12:34:08.747Z,9.00
2017-10-13T12:36:35.181Z,9.03
2017-10-13T12:39:01.617Z,7.27
2017-10-13T12:41:28.154Z,8.13
2017-10-13T12:43:54.571Z,7.57
2017-10-13T12:46:21.024Z,7.37
2017-10-13T12:51:00.852Z,13.67
2017-10-13T12:58:30.090Z,19.30
2017-10-13T13:03:27.789Z,11.37
2017-10-13T13:05:54.208Z,8.47
2017-10-13T13:08:20.585Z,11.17
2017-10-13T13:10:47.076Z,5.83
2017-10-13T13:13:14.534Z,13.10
2017-10-13T13:15:40.969Z,6.60
2017-10-13T13:18:07.506Z,4.50
2017-10-13T13:20:35.727Z,6.43
2017-10-13T13:23:02.220Z,5.07
2017-10-13T13:25:28.653Z,4.40
2017-10-13T13:27:55.029Z,4.67
2017-10-13T13:30:21.526Z,8.23
2017-10-13T13:32:50.584Z,10.97
2017-10-13T13:35:17.049Z,7.03
2017-10-13T13:37:43.400Z,5.80
2017-10-13T13:40:09.824Z,6.63
2017-10-13T13:42:36.359Z,7.50
2017-10-13T13:45:02.793Z,12.40
2017-10-13T13:47:29.332Z,7.27
2017-10-13T13:49:55.765Z,4.53
2017-10-13T13:52:22.278Z,3.90
2017-10-13T13:54:48.682Z,4.30
2017-10-13T13:57:15.127Z,6.53
2017-10-13T13:59:41.609Z,4.17
2017-10-13T14:02:08.146Z,5.23
2017-10-13T14:04:34.516Z,6.40
2017-10-13T14:07:01.657Z,7.73
2017-10-13T14:09:28.794Z,5.40
2017-10-13T14:11:55.217Z,5.07
2017-10-13T14:14:21.685Z,9.17
2017-10-13T14:16:48.085Z,8.13
2017-10-13T14:19:14.467Z,5.40
2017-10-13T14:21:40.955Z,7.13
2017-10-13T14:24:07.394Z,5.20
2017-10-13T14:26:33.824Z,11.23
2017-10-13T14:29:01.160Z,6.53
2017-10-13T14:31:28.300Z,8.67
2017-10-13T14:33:54.741Z,12.83
2017-10-13T14:36:21.185Z,6.63
2017-10-13T14:38:47.760Z,7.60
2017-10-13T14:41:14.792Z,9.33
2017-10-13T14:43:41.325Z,9.67
2017-10-13T14:46:08.239Z,12.40
2017-10-13T14:48:34.727Z,9.27
2017-10-13T14:51:01.142Z,16.30
2017-10-13T14:53:27.915Z,7.27
2017-10-13T14:55:54.358Z,12.53
2017-10-13T14:58:20.733Z,8.73
2017-10-13T15:15:56.456Z,14.30
2017-10-13T15:25:56.995Z,12.47
2017-10-13T15:28:23.526Z,12.83
2017-10-13T15:30:50.000Z,11.93
2017-10-13T15:33:16.346Z,12.97
2017-10-13T15:35:42.783Z,9.50
2017-10-13T15:38:09.217Z,11.27
2017-10-13T15:40:35.651Z,9.43
2017-10-13T15:43:02.087Z,11.23
2017-10-13T15:45:28.521Z,12.33
2017-10-13T15:47:54.955Z,10.60
2017-10-13T15:50:21.414Z,8.30
2017-10-13T15:52:47.825Z,9.50
2017-10-13T15:55:14.259Z,9.53
2017-10-13T15:57:40.694Z,7.80
2017-10-13T16:00:07.075Z,7.87
2017-10-13T16:02:33.565Z,12.33
2017-10-13T16:04:59.898Z,8.67
2017-10-13T16:07:26.331Z,7.40
2017-10-13T16:09:52.731Z,8.10
2017-10-13T16:12:19.918Z,8.90
2017-10-13T16:14:46.297Z,7.77
2017-10-13T16:17:12.638Z,20.30
2017-10-13T16:19:39.119Z,7.90
2017-10-13T16:22:05.568Z,8.20
2017-10-13T16:24:32.091Z,13.50
2017-10-13T16:26:58.528Z,7.70
2017-10-13T16:29:25.783Z,8.43
2017-10-13T16:31:52.238Z,12.17
2017-10-13T16:34:18.598Z,11.90
2017-10-13T16:36:45.086Z,8.43
2017-10-13T16:39:11.520Z,11.03
2017-10-13T16:41:37.955Z,9.00
2017-10-13T16:44:04.390Z,11.73
2017-10-13T16:46:31.560Z,10.43
2017-10-13T16:48:57.976Z,11.63
2017-10-13T16:51:24.421Z,9.97
2017-10-13T16:53:50.947Z,9.17
2017-10-13T16:56:17.383Z,10.80
2017-10-13T16:58:43.765Z,10.00
2017-10-13T17:01:10.255Z,9.70
2017-10-13T17:03:37.302Z,10.40
2017-10-13T17:06:03.735Z,13.37
2017-10-13T17:08:30.172Z,7.57
2017-10-13T17:10:56.607Z,11.87
2017-10-13T17:13:23.040Z,8.60
2017-10-13T17:15:49.475Z,11.00
2017-10-13T17:18:15.912Z,8.20
2017-10-13T17:20:43.061Z,8.73
2017-10-13T17:23:09.516Z,8.83
2017-10-13T17:25:36.036Z,16.90
2017-10-13T17:28:02.468Z,8.73
2017-10-13T17:30:29.005Z,8.73
2017-10-13T17:32:55.384Z,9.60
2017-10-13T17:35:21.972Z,13.30
2017-10-13T17:37:48.925Z,14.37
2017-10-13T17:40:15.307Z,12.73
2017-10-13T17:42:41.694Z,10.30
2017-10-13T17:45:08.126Z,9.60
2017-10-13T17:47:34.562Z,9.83
2017-10-13T17:50:01.014Z,9.70
2017-10-13T17:52:27.431Z,13.27
2017-10-13T17:54:54.629Z,14.17
2017-10-13T17:57:21.119Z,14.00
2017-10-13T17:59:47.554Z,14.50
2017-10-13T18:02:14.092Z,17.63
2017-10-13T18:04:40.526Z,29.23
2017-10-13T18:07:06.961Z,16.03
2017-10-13T18:09:33.343Z,17.63
2017-10-13T18:12:00.548Z,21.67
2017-10-13T18:14:27.000Z,18.10
2017-10-13T18:16:53.495Z,13.77
2017-10-13T18:19:19.958Z,14.70
2017-10-13T18:21:46.388Z,17.53
2017-10-13T18:24:12.844Z,14.93
2017-10-13T18:26:39.361Z,13.20
2017-10-13T18:29:06.512Z,16.23
2017-10-13T18:31:32.949Z,11.53
2017-10-13T18:33:59.402Z,10.97
2017-10-13T18:36:25.785Z,14.70
2017-10-13T18:38:52.251Z,11.37
2017-10-13T18:41:18.615Z,11.87
2017-10-13T18:43:45.122Z,16.47
2017-10-13T18:46:12.222Z,15.00
2017-10-13T18:48:38.665Z,10.47
2017-10-13T18:51:05.141Z,11.60
2017-10-13T18:53:31.577Z,13.90
2017-10-13T18:55:58.100Z,17.33
2017-10-13T18:58:24.544Z,18.97
2017-10-13T19:00:50.985Z,17.20
2017-10-13T19:03:18.238Z,14.40
2017-10-13T19:05:44.623Z,13.27
2017-10-13T19:08:11.108Z,14.03
2017-10-13T19:10:37.564Z,12.07
2017-10-13T19:13:04.079Z,12.60
2017-10-13T19:15:30.514Z,13.67
2017-10-13T19:17:56.952Z,12.03
2017-10-13T19:20:24.103Z,13.20
2017-10-13T19:22:50.537Z,11.77
2017-10-13T19:25:16.972Z,11.57
2017-10-13T19:27:43.405Z,16.30
2017-10-13T19:30:09.845Z,12.00
2017-10-13T19:32:36.278Z,15.83
2017-10-13T19:35:02.814Z,15.47
2017-10-13T19:37:29.863Z,18.37
2017-10-13T19:39:56.299Z,15.50
2017-10-13T19:42:22.740Z,12.23
2017-10-13T19:44:49.167Z,10.50
2017-10-13T19:47:15.547Z,12.00
2017-10-13T19:49:42.035Z,13.50
2017-10-13T19:52:08.478Z,13.03
2017-10-13T19:54:35.623Z,11.70
2017-10-13T19:57:02.057Z,10.57
2017-10-13T19:59:28.491Z,14.40
2017-10-13T20:01:54.881Z,12.17
2017-10-13T20:04:21.361Z,16.83
2017-10-13T20:06:47.795Z,16.07
2017-10-13T20:09:14.230Z,15.50
2017-10-13T20:11:41.382Z,13.53
2017-10-13T20:14:07.817Z,12.83
2017-10-13T20:16:34.181Z,13.73
2017-10-13T20:19:00.634Z,14.63
2017-10-13T20:21:27.066Z,18.23
2017-10-13T20:23:53.560Z,14.70
2017-10-13T20:26:20.093Z,12.47
2017-10-13T20:28:47.146Z,12.23
2017-10-13T20:31:13.536Z,19.97
2017-10-13T20:33:40.003Z,13.80
2017-10-13T20:36:06.447Z,12.47
2017-10-13T20:38:32.883Z,14.40
2017-10-13T20:40:59.318Z,12.27
2017-10-13T20:43:25.757Z,13.83
2017-10-13T20:45:52.903Z,17.00
2017-10-13T20:48:19.338Z,11.03
2017-10-13T20:50:45.775Z,12.17
2017-10-13T20:53:12.227Z,13.13
2017-10-13T20:55:38.591Z,11.00
2017-10-13T20:58:05.077Z,15.60
2017-10-13T21:00:31.615Z,14.37
2017-10-13T21:02:58.665Z,12.77
2017-10-13T21:05:25.115Z,13.03
2017-10-13T21:07:51.524Z,13.07
2017-10-13T21:10:17.970Z,10.13
2017-10-13T21:12:44.404Z,16.90
2017-10-13T21:15:10.839Z,11.87
2017-10-13T21:17:37.221Z,12.27
2017-10-13T21:20:04.425Z,13.20
2017-10-13T21:22:30.860Z,9.80
2017-10-13T21:24:57.313Z,12.73
2017-10-13T21:27:23.729Z,11.73
2017-10-13T21:29:50.165Z,13.50
2017-10-13T21:32:16.599Z,11.00
2017-10-13T21:34:43.036Z,11.87
2017-10-13T21:37:10.288Z,11.67
2017-10-13T21:39:36.722Z,12.50
2017-10-13T21:42:03.157Z,12.27
2017-10-13T21:44:29.592Z,12.00
2017-10-13T21:46:56.027Z,12.20
2017-10-13T21:49:22.465Z,13.33
2017-10-13T21:51:48.897Z,11.40
2017-10-13T21:54:16.000Z,13.67
2017-10-13T21:56:42.431Z,12.00
2017-10-13T21:59:08.917Z,12.70
2017-10-13T22:01:35.352Z,12.57
2017-10-13T22:04:01.789Z,11.77
2017-10-13T22:06:28.222Z,13.13
2017-10-13T22:08:54.612Z,9.73
2017-10-13T22:11:21.911Z,18.23
2017-10-13T22:13:48.364Z,10.77
2017-10-13T22:16:14.714Z,11.00
2017-10-13T22:18:41.218Z,14.97
2017-10-13T22:21:07.653Z,9.50
2017-10-13T22:23:34.085Z,13.13
2017-10-13T22:26:00.523Z,9.27
2017-10-13T22:28:27.777Z,13.60
2017-10-13T22:30:54.227Z,11.37
2017-10-13T22:33:20.658Z,15.83
2017-10-13T22:35:47.079Z,14.50
2017-10-13T22:38:13.513Z,10.33
2017-10-13T22:40:39.993Z,9.53
2017-10-13T22:43:06.480Z,15.27
2017-10-13T22:45:33.636Z,16.07
2017-10-13T23:00:43.376Z,15.03
2017-10-13T23:03:09.810Z,14.53
2017-10-13T23:05:36.231Z,14.60
2017-10-13T23:08:03.479Z,13.17
2017-10-13T23:10:29.920Z,13.40
2017-10-13T23:12:56.387Z,10.03
2017-10-13T23:15:22.781Z,12.03
2017-10-13T23:17:49.194Z,12.70
2017-10-13T23:20:15.618Z,12.80
2017-10-13T23:22:42.108Z,14.90
2017-10-13T23:25:09.259Z,11.93
2017-10-13T23:27:35.695Z,12.53
2017-10-13T23:30:02.129Z,10.47
2017-10-13T23:32:28.564Z,11.33
2017-10-13T23:34:55.047Z,10.70
2017-10-13T23:37:21.535Z,10.17
2017-10-13T23:39:47.931Z,10.23
2017-10-13T23:42:15.224Z,16.03
2017-10-13T23:44:41.660Z,11.33
2017-10-13T23:47:08.094Z,12.23
2017-10-13T23:49:34.530Z,10.03
2017-10-13T23:52:00.912Z,9.27
2017-10-13T23:54:27.355Z,14.23
2017-10-13T23:56:53.832Z,11.00
2017-10-13T23:59:21.104Z,14.87
